createdAt,value
2022-11-12T00:01:26.383Z,68.50
2022-11-12T00:03:46.934Z,68.70
2022-11-12T00:06:07.082Z,69.00
2022-11-12T00:08:27.662Z,69.00
2022-11-12T00:10:47.873Z,69.00
2022-11-12T00:13:08.045Z,69.50
2022-11-12T00:15:28.551Z,69.90
2022-11-12T00:17:48.944Z,70.10
2022-11-12T00:20:09.348Z,70.20
2022-11-12T00:22:29.849Z,70.20
2022-11-12T00:24:50.193Z,70.20
2022-11-12T00:27:10.520Z,70.00
2022-11-12T00:29:30.785Z,69.90
2022-11-12T00:31:51.012Z,70.80
2022-11-12T00:34:11.210Z,70.00
2022-11-12T00:36:31.340Z,70.80
2022-11-12T00:38:51.354Z,70.80
2022-11-12T00:41:11.352Z,70.70
2022-11-12T00:43:31.493Z,70.70
2022-11-12T00:45:51.771Z,69.80
2022-11-12T00:48:12.123Z,69.90
2022-11-12T00:50:32.192Z,69.90
2022-11-12T00:52:53.105Z,70.00
2022-11-12T00:55:13.627Z,70.00
2022-11-12T00:57:33.604Z,70.40
2022-11-12T00:59:53.662Z,69.30
2022-11-12T01:02:13.737Z,69.10
2022-11-12T01:04:33.938Z,69.80
2022-11-12T01:06:54.004Z,68.90
2022-11-12T01:09:13.965Z,68.70
2022-11-12T01:11:34.109Z,68.70
2022-11-12T01:14:01.777Z,69.50
2022-11-12T01:16:22.954Z,68.70
2022-11-12T01:18:43.473Z,69.60
2022-11-12T01:21:04.731Z,68.90
2022-11-12T01:23:24.884Z,68.90
2022-11-12T01:25:45.260Z,68.90
2022-11-12T01:28:05.580Z,68.70
2022-11-12T01:30:26.222Z,69.50
2022-11-12T01:32:46.321Z,69.30
2022-11-12T01:35:06.743Z,69.20
2022-11-12T01:37:27.084Z,68.50
2022-11-12T01:39:47.344Z,68.80
2022-11-12T01:42:07.466Z,69.70
2022-11-12T01:44:30.731Z,69.80
2022-11-12T01:46:56.698Z,69.80
2022-11-12T01:49:51.876Z,69.80
2022-11-12T01:52:17.385Z,68.90
2022-11-12T01:54:37.983Z,68.80
2022-11-12T01:56:58.758Z,68.70
2022-11-12T01:59:33.343Z,69.70
2022-11-12T02:01:53.319Z,69.10
2022-11-12T02:04:13.643Z,69.50
2022-11-12T02:06:34.402Z,69.70
2022-11-12T02:08:54.792Z,69.50
2022-11-12T02:11:16.564Z,70.30
2022-11-12T02:13:55.580Z,69.90
2022-11-12T02:16:16.019Z,70.10
2022-11-12T02:18:36.145Z,70.00
2022-11-12T02:21:43.557Z,70.00
2022-11-12T02:24:41.012Z,70.40
2022-11-12T02:32:57.662Z,70.60
2022-11-12T02:35:49.885Z,70.50
2022-11-12T02:38:33.213Z,70.50
2022-11-12T02:41:32.265Z,70.30
2022-11-12T02:47:12.675Z,70.00
2022-11-12T02:49:48.707Z,69.80
2022-11-12T02:58:03.477Z,69.90
2022-11-12T03:00:25.119Z,69.90
2022-11-12T03:03:11.409Z,69.90
2022-11-12T03:06:11.963Z,70.00
2022-11-12T03:11:24.407Z,71.40
2022-11-12T03:14:02.160Z,70.50
2022-11-12T03:22:01.885Z,70.00
2022-11-12T03:24:52.613Z,69.70
2022-11-12T03:27:15.715Z,69.30
2022-11-12T03:30:17.421Z,70.20
2022-11-12T03:33:02.269Z,69.30
2022-11-12T03:35:40.234Z,69.10
2022-11-12T03:38:36.193Z,68.80
2022-11-12T03:43:59.227Z,69.20
2022-11-12T03:52:52.002Z,69.60
2022-11-12T03:55:43.705Z,69.50
2022-11-12T04:00:10.973Z,69.60
2022-11-12T04:01:35.957Z,69.40
2022-11-12T04:07:23.698Z,70.10
2022-11-12T04:10:04.704Z,69.10
2022-11-12T04:12:51.635Z,68.90
2022-11-12T04:18:41.627Z,69.00
2022-11-12T04:21:27.334Z,69.10
2022-11-12T04:33:34.524Z,69.10
2022-11-12T04:36:41.452Z,69.00
2022-11-12T04:48:10.511Z,68.70
2022-11-12T04:48:57.768Z,68.80
2022-11-12T04:51:07.224Z,68.60
2022-11-12T04:56:15.788Z,68.90
2022-11-12T04:58:38.838Z,68.80
2022-11-12T05:02:35.371Z,69.00
2022-11-12T05:07:24.701Z,69.20
2022-11-12T05:13:12.827Z,69.10
2022-11-12T05:16:10.915Z,69.00
2022-11-12T05:18:52.877Z,69.80
2022-11-12T05:21:54.128Z,69.10
2022-11-12T05:24:41.872Z,69.00
2022-11-12T05:30:13.987Z,68.90
2022-11-12T05:36:06.906Z,69.80
2022-11-12T05:48:44.910Z,69.50
2022-11-12T05:57:34.269Z,70.80
2022-11-12T06:00:09.559Z,69.80
2022-11-12T06:03:10.806Z,70.60
2022-11-12T06:06:07.787Z,69.60
2022-11-12T06:15:03.578Z,69.40
2022-11-12T06:17:32.583Z,69.40
2022-11-12T06:22:48.810Z,69.30
2022-11-12T06:28:13.641Z,69.30
2022-11-12T06:30:51.039Z,69.40
2022-11-12T06:33:19.399Z,69.50
2022-11-12T06:38:50.201Z,70.50
2022-11-12T06:41:50.661Z,69.70
2022-11-12T06:48:17.560Z,69.70
2022-11-12T06:54:06.028Z,69.70
2022-11-12T06:57:06.996Z,70.50
2022-11-12T07:00:09.813Z,69.90
2022-11-12T07:02:39.201Z,70.10
2022-11-12T07:08:33.070Z,70.00
2022-11-12T07:18:47.630Z,70.70
2022-11-12T07:20:10.470Z,71.40
2022-11-12T07:29:10.569Z,71.10
2022-11-12T07:32:41.917Z,71.40
2022-11-12T07:35:37.248Z,71.40
2022-11-12T07:38:24.868Z,71.10
2022-11-12T07:47:29.758Z,70.70
2022-11-12T07:50:36.223Z,71.80
2022-11-12T07:53:00.738Z,71.10
2022-11-12T07:55:27.858Z,71.80
2022-11-12T07:58:03.442Z,70.90
2022-11-12T08:00:41.146Z,70.70
2022-11-12T08:03:04.466Z,70.70
2022-11-12T08:08:21.356Z,71.00
2022-11-12T08:10:46.146Z,71.10
2022-11-12T08:13:15.415Z,71.00
2022-11-12T08:15:46.773Z,71.10
2022-11-12T08:18:25.944Z,71.90
2022-11-12T08:20:52.916Z,71.10
2022-11-12T08:26:39.588Z,71.60
2022-11-12T08:32:00.405Z,71.70
2022-11-12T08:35:16.688Z,71.70
2022-11-12T08:41:30.441Z,71.70
2022-11-12T08:44:08.851Z,71.70
2022-11-12T08:46:59.374Z,71.70
2022-11-12T08:49:59.627Z,72.50
2022-11-12T08:52:20.145Z,71.70
2022-11-12T08:54:58.936Z,71.60
2022-11-12T09:00:32.916Z,71.20
2022-11-12T09:03:13.194Z,71.00
2022-11-12T09:05:41.181Z,71.00
2022-11-12T09:08:24.929Z,71.00
2022-11-12T09:11:52.615Z,71.00
2022-11-12T09:14:01.365Z,71.20
2022-11-12T09:16:32.404Z,71.30
2022-11-12T09:19:03.455Z,71.20
2022-11-12T09:21:28.635Z,71.10
2022-11-12T09:23:54.270Z,71.10
2022-11-12T09:26:14.622Z,70.90
2022-11-12T09:28:34.780Z,71.00
2022-11-12T09:30:55.111Z,71.00
2022-11-12T09:33:23.074Z,70.70
2022-11-12T09:35:43.921Z,70.70
2022-11-12T09:38:04.465Z,71.50
2022-11-12T09:40:31.519Z,70.70
2022-11-12T09:42:53.268Z,70.70
2022-11-12T09:45:26.202Z,70.70
2022-11-12T09:47:48.905Z,71.50
2022-11-12T09:50:29.582Z,70.50
2022-11-12T09:52:52.857Z,70.70
2022-11-12T09:55:33.345Z,70.80
2022-11-12T09:57:53.514Z,70.80
2022-11-12T10:00:17.699Z,70.80
2022-11-12T10:02:42.545Z,70.90
2022-11-12T10:05:09.762Z,71.00
2022-11-12T10:07:48.652Z,70.90
2022-11-12T10:10:22.328Z,70.80
2022-11-12T10:12:50.302Z,70.80
2022-11-12T10:15:32.613Z,70.90
2022-11-12T10:18:09.080Z,70.90
2022-11-12T10:24:28.501Z,71.10
2022-11-12T10:27:05.818Z,70.80
2022-11-12T10:29:31.127Z,70.70
2022-11-12T10:32:32.513Z,71.60
2022-11-12T10:35:00.990Z,71.00
2022-11-12T10:37:56.211Z,71.00
2022-11-12T10:43:35.080Z,71.10
2022-11-12T10:46:16.578Z,71.00
2022-11-12T10:48:46.841Z,70.90
2022-11-12T10:52:01.743Z,70.90
2022-11-12T10:54:30.568Z,70.70
2022-11-12T10:56:55.613Z,70.60
2022-11-12T11:02:06.784Z,70.60
2022-11-12T11:04:35.402Z,70.70
2022-11-12T11:07:06.484Z,70.60
2022-11-12T11:09:27.129Z,70.60
2022-11-12T11:11:54.137Z,70.60
2022-11-12T11:14:32.877Z,70.60
2022-11-12T11:17:05.500Z,71.30
2022-11-12T11:19:34.864Z,70.50
2022-11-12T11:22:12.536Z,71.30
2022-11-12T11:24:48.033Z,70.60
2022-11-12T11:27:20.600Z,70.50
2022-11-12T11:29:47.290Z,70.50
2022-11-12T11:32:07.557Z,70.50
2022-11-12T11:34:35.173Z,70.40
2022-11-12T11:36:55.291Z,70.10
2022-11-12T11:39:24.915Z,70.90
2022-11-12T11:42:00.286Z,70.70
2022-11-12T11:44:23.685Z,70.50
2022-11-12T11:46:44.155Z,69.60
2022-11-12T11:49:23.034Z,69.50
2022-11-12T11:51:49.502Z,69.60
2022-11-12T11:54:18.809Z,69.80
2022-11-12T11:56:43.080Z,70.00
2022-11-12T11:59:13.864Z,70.30
2022-11-12T12:01:40.322Z,70.40
2022-11-12T12:04:06.683Z,70.50
2022-11-12T12:06:28.659Z,69.70
2022-11-12T12:09:01.184Z,70.50
2022-11-12T12:11:23.918Z,70.60
2022-11-12T12:13:59.630Z,70.60
2022-11-12T12:16:22.870Z,70.50
2022-11-12T12:19:04.719Z,70.50
2022-11-12T12:21:26.444Z,71.10
2022-11-12T12:23:53.084Z,70.10
2022-11-12T12:26:16.132Z,70.80
2022-11-12T12:28:49.166Z,70.00
2022-11-12T12:31:14.026Z,70.90
2022-11-12T12:33:47.410Z,70.00
2022-11-12T12:36:35.446Z,70.50
2022-11-12T12:39:14.389Z,69.60
2022-11-12T12:41:51.543Z,69.70
2022-11-12T12:44:12.243Z,69.60
2022-11-12T12:46:37.532Z,69.40
2022-11-12T12:48:58.584Z,69.50
2022-11-12T12:51:19.072Z,69.60
2022-11-12T12:53:40.604Z,69.50
2022-11-12T12:56:02.710Z,69.60
2022-11-12T12:58:27.822Z,69.50
2022-11-12T13:00:50.210Z,69.50
2022-11-12T13:03:11.394Z,69.40
2022-11-12T13:05:33.063Z,69.40
2022-11-12T13:07:57.047Z,69.30
2022-11-12T13:10:41.416Z,69.20
2022-11-12T13:13:01.738Z,69.20
2022-11-12T13:15:40.354Z,69.00
2022-11-12T13:18:00.806Z,69.60
2022-11-12T13:20:34.962Z,68.70
2022-11-12T13:22:55.676Z,68.70
2022-11-12T13:25:19.246Z,68.80
2022-11-12T13:27:39.654Z,69.60
2022-11-12T13:29:59.742Z,68.70
2022-11-12T13:32:26.205Z,68.60
2022-11-12T13:34:46.299Z,68.70
2022-11-12T13:37:06.511Z,69.40
2022-11-12T13:39:26.645Z,68.50
2022-11-12T13:42:13.364Z,68.50
2022-11-12T13:44:35.016Z,68.20
2022-11-12T13:46:56.284Z,68.30
2022-11-12T13:49:17.058Z,67.90
2022-11-12T13:51:39.079Z,67.80
2022-11-12T13:53:59.190Z,67.90
2022-11-12T13:56:28.696Z,67.70
2022-11-12T13:58:48.966Z,67.50
2022-11-12T14:01:11.120Z,67.50
2022-11-12T14:03:36.612Z,67.60
2022-11-12T14:06:06.094Z,68.50
2022-11-12T14:08:45.957Z,67.80
2022-11-12T14:11:09.567Z,67.60
2022-11-12T14:13:37.428Z,67.60
2022-11-12T14:16:05.614Z,67.80
2022-11-12T14:18:36.916Z,67.70
2022-11-12T14:20:57.459Z,67.70
2022-11-12T14:23:24.436Z,67.50
2022-11-12T14:25:47.084Z,67.50
2022-11-12T14:28:23.572Z,67.40
2022-11-12T14:30:44.669Z,67.50
2022-11-12T14:33:09.217Z,67.50
2022-11-12T14:35:29.488Z,68.50
2022-11-12T14:37:55.826Z,67.80
2022-11-12T14:40:17.068Z,67.80
2022-11-12T14:42:37.593Z,67.80
2022-11-12T14:44:57.814Z,67.80
2022-11-12T14:47:18.247Z,67.80
2022-11-12T14:49:43.840Z,67.90
2022-11-12T14:52:08.213Z,67.80
2022-11-12T14:54:30.799Z,68.60
2022-11-12T14:56:50.873Z,67.90
2022-11-12T14:59:12.698Z,68.00
2022-11-12T15:02:14.508Z,68.00
2022-11-12T15:04:19.058Z,68.10
2022-11-12T15:06:39.326Z,68.90
2022-11-12T15:09:00.039Z,68.10
2022-11-12T15:11:23.309Z,69.00
2022-11-12T15:13:44.086Z,68.30
2022-11-12T15:16:07.301Z,69.10
2022-11-12T15:18:29.455Z,68.30
2022-11-12T15:21:08.393Z,68.30
2022-11-12T15:23:29.054Z,68.30
2022-11-12T15:25:59.580Z,68.30
2022-11-12T15:28:24.136Z,68.30
2022-11-12T15:30:59.446Z,68.30
2022-11-12T15:33:21.928Z,68.20
2022-11-12T15:35:46.310Z,68.20
2022-11-12T15:38:10.764Z,69.00
2022-11-12T15:40:31.875Z,68.20
2022-11-12T15:42:52.177Z,68.20
2022-11-12T15:45:12.306Z,68.30
2022-11-12T15:47:32.597Z,68.20
2022-11-12T15:49:57.394Z,68.20
2022-11-12T15:52:17.827Z,68.10
2022-11-12T15:54:41.075Z,68.20
2022-11-12T15:57:01.551Z,68.20
2022-11-12T15:59:21.692Z,68.20
2022-11-12T16:01:41.727Z,68.20
2022-11-12T16:04:01.787Z,68.10
2022-11-12T16:06:21.757Z,68.20
2022-11-12T16:08:41.854Z,68.20
2022-11-12T16:11:01.996Z,69.10
2022-11-12T16:13:30.153Z,68.40
2022-11-12T16:15:51.224Z,69.20
2022-11-12T16:18:14.648Z,68.30
2022-11-12T16:20:35.084Z,68.30
2022-11-12T16:22:55.801Z,68.30
2022-11-12T16:25:16.496Z,68.40
2022-11-12T16:27:38.035Z,68.60
2022-11-12T16:29:58.338Z,68.70
2022-11-12T16:32:18.778Z,68.50
2022-11-12T16:34:38.866Z,68.40
2022-11-12T16:36:59.046Z,68.40
2022-11-12T16:39:19.106Z,68.40
2022-11-12T16:41:39.444Z,69.10
2022-11-12T16:43:59.647Z,68.40
2022-11-12T16:46:28.944Z,68.50
2022-11-12T16:48:49.149Z,68.50
2022-11-12T16:51:17.384Z,68.30
2022-11-12T16:53:37.560Z,68.20
2022-11-12T16:55:57.674Z,68.20
2022-11-12T16:58:17.947Z,68.20
2022-11-12T17:00:38.903Z,68.10
2022-11-12T17:02:59.360Z,68.20
2022-11-12T17:05:21.521Z,68.10
2022-11-12T17:07:41.695Z,68.20
2022-11-12T17:10:01.940Z,68.10
2022-11-12T17:12:22.335Z,68.10
2022-11-12T17:14:42.421Z,68.30
2022-11-12T17:17:02.742Z,68.40
2022-11-12T17:19:23.263Z,68.40
2022-11-12T17:21:43.945Z,68.40
2022-11-12T17:24:04.253Z,68.50
2022-11-12T17:26:24.481Z,68.80
2022-11-12T17:28:45.158Z,69.00
2022-11-12T17:31:06.561Z,69.00
2022-11-12T17:33:28.743Z,69.00
2022-11-12T17:35:49.428Z,68.90
2022-11-12T17:38:09.591Z,68.90
2022-11-12T17:40:29.958Z,68.80
2022-11-12T17:42:50.061Z,68.90
2022-11-12T17:45:10.277Z,68.90
2022-11-12T17:47:30.559Z,68.90
2022-11-12T17:49:50.654Z,68.80
2022-11-12T17:52:10.945Z,68.90
2022-11-12T17:54:31.082Z,68.80
2022-11-12T17:56:51.278Z,68.90
2022-11-12T17:59:11.399Z,69.10
2022-11-12T18:01:31.966Z,70.00
2022-11-12T18:03:54.573Z,69.90
2022-11-12T18:06:16.390Z,70.00
2022-11-12T18:08:36.683Z,69.40
2022-11-12T18:10:57.135Z,69.30
2022-11-12T18:13:17.470Z,69.20
2022-11-12T18:15:37.568Z,69.30
2022-11-12T18:17:57.980Z,69.30
2022-11-12T18:20:19.630Z,69.30
2022-11-12T18:22:44.768Z,70.10
2022-11-12T18:25:05.949Z,69.20
2022-11-12T18:27:26.406Z,69.20
2022-11-12T18:29:46.982Z,69.20
2022-11-12T18:32:07.932Z,69.00
2022-11-12T18:34:28.038Z,68.90
2022-11-12T18:36:48.182Z,68.80
2022-11-12T18:39:08.484Z,68.70
2022-11-12T18:41:30.159Z,68.60
2022-11-12T18:43:50.358Z,68.60
2022-11-12T18:46:10.672Z,68.70
2022-11-12T18:48:31.663Z,68.70
2022-11-12T18:50:51.783Z,68.60
2022-11-12T18:53:11.962Z,68.60
2022-11-12T18:55:32.115Z,68.60
2022-11-12T18:57:52.316Z,68.70
2022-11-12T19:00:12.808Z,68.60
2022-11-12T19:02:33.282Z,69.30
2022-11-12T19:04:53.521Z,68.30
2022-11-12T19:07:13.879Z,68.20
2022-11-12T19:09:34.550Z,68.20
2022-11-12T19:11:54.858Z,68.10
2022-11-12T19:14:15.341Z,68.00
2022-11-12T19:16:35.941Z,68.00
2022-11-12T19:18:56.217Z,68.10
2022-11-12T19:21:18.012Z,68.10
2022-11-12T19:23:40.727Z,68.20
2022-11-12T19:26:01.923Z,68.20
2022-11-12T19:28:22.364Z,68.20
2022-11-12T19:30:42.590Z,68.20
2022-11-12T19:33:02.967Z,68.20
2022-11-12T19:35:23.437Z,68.30
2022-11-12T19:37:43.653Z,68.40
2022-11-12T19:40:05.527Z,68.40
2022-11-12T19:42:26.000Z,68.30
2022-11-12T19:44:46.200Z,68.20
2022-11-12T19:47:06.423Z,68.20
2022-11-12T19:49:26.639Z,68.40
2022-11-12T19:51:46.746Z,69.20
2022-11-12T19:54:10.295Z,68.30
2022-11-12T19:56:35.725Z,69.10
2022-11-12T19:58:55.940Z,68.20
2022-11-12T20:01:17.075Z,69.00
2022-11-12T20:03:39.595Z,68.10
2022-11-12T20:06:00.998Z,68.20
2022-11-12T20:08:23.850Z,69.00
2022-11-12T20:10:44.410Z,69.00
2022-11-12T20:13:04.518Z,68.00
2022-11-12T20:15:25.686Z,68.10
2022-11-12T20:17:46.180Z,68.30
2022-11-12T20:20:07.257Z,68.40
2022-11-12T20:22:32.118Z,68.50
2022-11-12T20:24:53.132Z,68.50
2022-11-12T20:27:13.395Z,68.60
2022-11-12T20:29:33.987Z,68.70
2022-11-12T20:31:54.256Z,68.90
2022-11-12T20:34:14.781Z,68.90
2022-11-12T20:36:34.873Z,68.90
2022-11-12T20:38:55.202Z,68.80
2022-11-12T20:41:19.091Z,68.70
2022-11-12T20:43:39.324Z,68.70
2022-11-12T20:45:59.908Z,68.70
2022-11-12T20:48:20.309Z,68.60
2022-11-12T20:50:56.389Z,68.80
2022-11-12T20:53:21.014Z,69.60
2022-11-12T20:55:41.123Z,68.80
2022-11-12T20:58:01.188Z,68.70
2022-11-12T21:00:24.582Z,68.60
2022-11-12T21:02:45.139Z,68.50
2022-11-12T21:05:05.181Z,68.50
2022-11-12T21:07:25.512Z,69.20
2022-11-12T21:09:45.739Z,68.40
2022-11-12T21:12:06.261Z,68.30
2022-11-12T21:14:26.764Z,68.40
2022-11-12T21:16:46.966Z,68.40
2022-11-12T21:19:07.171Z,68.30
2022-11-12T21:21:31.250Z,68.30
2022-11-12T21:23:53.782Z,68.20
2022-11-12T21:26:15.080Z,68.20
2022-11-12T21:28:38.109Z,69.10
2022-11-12T21:31:02.345Z,68.80
2022-11-12T21:33:22.504Z,68.40
2022-11-12T21:35:43.060Z,68.50
2022-11-12T21:38:03.403Z,68.20
2022-11-12T21:40:25.174Z,68.20
2022-11-12T21:42:46.035Z,68.40
2022-11-12T21:45:06.866Z,68.40
2022-11-12T21:47:27.826Z,69.30
2022-11-12T21:49:47.974Z,68.60
2022-11-12T21:52:09.381Z,68.50
2022-11-12T21:54:29.695Z,68.60
2022-11-12T21:56:49.839Z,69.50
2022-11-12T21:59:10.060Z,68.70
2022-11-12T22:01:32.068Z,68.70
2022-11-12T22:03:53.113Z,68.80
2022-11-12T22:06:13.402Z,68.80
2022-11-12T22:08:33.833Z,68.80
2022-11-12T22:10:59.659Z,68.80
2022-11-12T22:13:26.981Z,69.40
2022-11-12T22:15:50.636Z,69.30
2022-11-12T22:18:10.815Z,68.50
2022-11-12T22:20:31.094Z,68.40
2022-11-12T22:22:51.656Z,68.50
2022-11-12T22:25:11.889Z,68.70
2022-11-12T22:27:33.772Z,69.50
2022-11-12T22:29:54.092Z,68.90
2022-11-12T22:32:14.226Z,69.10
2022-11-12T22:34:34.466Z,69.80
2022-11-12T22:36:54.666Z,68.90
2022-11-12T22:39:14.784Z,68.80
2022-11-12T22:41:34.814Z,68.90
2022-11-12T22:43:56.125Z,68.90
2022-11-12T22:46:17.846Z,68.90
2022-11-12T22:48:38.592Z,69.00
2022-11-12T22:51:06.735Z,68.90
2022-11-12T22:53:27.298Z,69.60
2022-11-12T22:55:47.344Z,69.60
2022-11-12T22:58:07.662Z,69.60
2022-11-12T23:00:29.172Z,69.20
2022-11-12T23:02:49.233Z,69.40
2022-11-12T23:05:09.345Z,69.40
2022-11-12T23:07:29.654Z,70.20
2022-11-12T23:09:50.051Z,69.50
2022-11-12T23:12:10.267Z,69.60
2022-11-12T23:14:30.226Z,69.70
2022-11-12T23:16:50.279Z,70.50
2022-11-12T23:19:10.512Z,69.50
2022-11-12T23:21:30.714Z,69.40
2022-11-12T23:23:51.201Z,69.50
2022-11-12T23:26:13.017Z,69.50
2022-11-12T23:28:34.250Z,70.20
2022-11-12T23:30:54.917Z,69.30
2022-11-12T23:33:15.313Z,69.30
2022-11-12T23:35:35.876Z,69.20
2022-11-12T23:37:55.927Z,69.30
2022-11-12T23:40:16.103Z,69.80
2022-11-12T23:42:36.198Z,69.80
2022-11-12T23:44:56.351Z,70.40
2022-11-12T23:47:16.685Z,69.50
2022-11-12T23:49:36.781Z,69.50
2022-11-12T23:51:56.756Z,69.50
2022-11-12T23:54:16.787Z,69.70
2022-11-12T23:56:36.962Z,69.80
2022-11-12T23:58:58.250Z,69.80
